ADDS METAR Data INFO
IDs: Format: Raw Decoded Include TAF

Data at: 2055 UTC 24 Jun 2017

K3T5 242035Z AUTO 07005KT 7SM -RA SCT060 OVC100 24/24 A3002 RMK AO2 P0004 T02430235
K3T5 242015Z AUTO 00000KT 4SM RA OVC100 24/23 A3006 RMK AO2 P0004 T02400233
K3T5 241955Z AUTO 00000KT 4SM RA SCT018 SCT048 OVC100 24/23 A3009 RMK AO2 P0014 T02370230
K3T5 241935Z AUTO 00000KT 5SM RA BKN014 OVC019 24/23 A3011 RMK AO2 LTG DSNT S P0009 T02360229
K3T5 241915Z AUTO 00000KT 4SM RA SCT014 BKN021 OVC027 23/23 A3012 RMK AO2 P0004 T02330225
K3T5 241855Z AUTO 34003KT 3SM +VCTSRA SCT016 SCT022 OVC043 23/22 A3013 RMK AO2 LTG DSNT W P0042 T02310222
K3T5 241835Z AUTO 00000KT 2 1/2SM +RA SCT009 BKN028 OVC043 23/22 A3013 RMK AO2 LTG DSNT W AND NW P0024 T02260215
K3T5 241815Z AUTO 00000KT 4SM RA SCT009 OVC029 25/24 A3011 RMK AO2 P0007 T02490236
K3T5 241755Z AUTO 00000KT 10SM -RA SCT029 BKN034 OVC042 25/24 A3010 RMK AO2 LTG DSNT N P0001 60001 T02510237 10301 20251
K3T5 241735Z AUTO 21003KT 10SM -RA SCT031 BKN037 OVC110 26/23 A3009 RMK AO2 T02580233
K3T5 241715Z AUTO 18004KT 10SM BKN031 BKN050 BKN070 26/22 A3007 RMK AO2 LTG DSNT SW T02600222
K3T5 241655Z AUTO 16004KT 10SM SCT024 OVC031 26/23 A3009 RMK AO2 LTG DSNT SE THRU SW T02630227
K3T5 241635Z AUTO 19007KT 10SM BKN026 OVC044 26/22 A3010 RMK AO2 LTG DSNT S AND SW T02640224
K3T5 241615Z AUTO 20006KT 10SM TS BKN044 OVC110 28/23 A3008 RMK AO2 LTG DSNT SE THRU SW T02800230
K3T5 241555Z AUTO 15003KT 10SM VCTS SCT023 SCT042 BKN110 28/23 A3006 RMK AO2 LTG DSNT SE THRU SW T02790230
K3T5 241535Z AUTO 14004KT 10SM BKN023 BKN028 BKN035 28/23 A3004 RMK AO2 LTG DSNT E THRU SW T02820231
K3T5 241515Z AUTO 11004KT 10SM TS OVC026 29/24 A3004 RMK AO2 LTG DSNT E THRU SW T02890236
K3T5 241455Z AUTO 07009KT 10SM VCTS SCT024 BKN030 BKN046 30/24 A3002 RMK AO2 LTG DSNT E THRU SW T02980236
K3T5 241435Z AUTO 04006KT 10SM -RA SCT015 BKN038 OVC070 29/23 A3001 RMK AO2 LTG DSNT ALQS T02850233
K3T5 241415Z AUTO 03008G16KT 10SM VCTS BKN013 OVC020 27/24 A3001 RMK AO2 LTG DSNT E AND SE T02730237
K3T5 241235Z AUTO 06003KT 4SM VCTS BR OVC003 27/27 A2997 RMK AO2 LTG DSNT E AND S T02710266
K3T5 241215Z AUTO 08003KT 4SM BR OVC003 27/27 A2998 RMK AO2 LTG DSNT E S AND NW T02700265
K3T5 241155Z AUTO 00000KT 4SM BR OVC003 27/27 A2997 RMK AO2 LTG DSNT SE T02680265 10268 20250
K3T5 241135Z AUTO 00000KT 3SM BR OVC003 27/26 A2997 RMK AO2 LTG DSNT SE T02660263
K3T5 241115Z AUTO 12004KT 4SM BR OVC003 27/26 A2996 RMK AO2 LTG DSNT E AND SE T02650262
K3T5 241055Z AUTO 00000KT 4SM BR OVC003 27/26 A2996 RMK AO2 LTG DSNT E T02650261
K3T5 241035Z AUTO 00000KT 3SM BR OVC003 26/26 A2996 RMK AO2 T02630260
K3T5 241015Z AUTO 00000KT 3SM BR OVC003 26/26 A2994 RMK AO2 T02630259
K3T5 240955Z AUTO 00000KT 4SM BR OVC003 26/26 A2993 RMK AO2 T02610257
K3T5 240935Z AUTO 00000KT 4SM BR OVC005 26/25 A2992 RMK AO2 T02570254
K3T5 240915Z AUTO 00000KT 3SM BR BKN005 OVC018 25/25 A2991 RMK AO2 T02530250
K3T5 240855Z AUTO 00000KT 4SM BR SCT007 SCT018 BKN024 26/25 A2991 RMK AO2 T02560251
K3T5 240835Z AUTO 00000KT 5SM BR SCT009 SCT015 SCT024 26/25 A2992 RMK AO2 T02570251
K3T5 240815Z AUTO 00000KT 5SM BR SCT011 BKN019 26/25 A2992 RMK AO2 T02570250
K3T5 240755Z AUTO 00000KT 5SM BR SCT021 26/25 A2992 RMK AO2 T02560248
K3T5 240735Z AUTO 00000KT 5SM BR SCT013 SCT024 26/25 A2992 RMK AO2 T02600250
K3T5 240715Z AUTO 00000KT 7SM SCT012 BKN018 BKN026 26/25 A2992 RMK AO2 T02620250
K3T5 240655Z AUTO 00000KT 7SM SCT012 BKN018 BKN026 26/25 A2993 RMK AO2 T02630250
K3T5 240635Z AUTO 00000KT 7SM SCT020 SCT026 26/25 A2992 RMK AO2 T02590245
K3T5 240615Z AUTO 00000KT 7SM CLR 26/25 A2993 RMK AO2 T02640247
K3T5 240555Z AUTO 00000KT 7SM CLR 27/25 A2993 RMK AO2 T02670248 10355 20267 403850265
K3T5 240535Z AUTO 18003KT 7SM CLR 27/25 A2991 RMK AO2 T02700248
K3T5 240515Z AUTO 17003KT 10SM CLR 28/25 A2991 RMK AO2 T02750249
K3T5 240455Z AUTO 17004KT 10SM CLR 28/25 A2991 RMK AO2 T02770247
K3T5 240435Z AUTO 17004KT 10SM CLR 28/25 A2990 RMK AO2 T02810247
K3T5 240415Z AUTO 16006KT 10SM CLR 29/25 A2989 RMK AO2 T02850246
K3T5 240355Z AUTO 16006KT 10SM CLR 29/25 A2988 RMK AO2 T02900245
K3T5 240335Z AUTO 15006KT 10SM CLR 29/24 A2988 RMK AO2 T02920242
K3T5 240315Z AUTO 16006KT 10SM CLR 29/24 A2986 RMK AO2 T02940241
K3T5 240255Z AUTO 16004KT 10SM CLR 30/24 A2984 RMK AO2 T02960242
K3T5 240235Z AUTO 16006KT 10SM CLR 30/24 A2983 RMK AO2 T03020242
K3T5 240215Z AUTO 15006KT 10SM CLR 31/24 A2982 RMK AO2 T03090241
K3T5 240155Z AUTO 15007KT 10SM CLR 31/24 A2982 RMK AO2 T03140238
K3T5 240135Z AUTO 14007KT 10SM CLR 32/24 A2980 RMK AO2 T03210239
K3T5 240115Z AUTO 14004KT 10SM CLR 33/23 A2980 RMK AO2 T03300233
K3T5 240055Z AUTO 15007KT 10SM CLR 34/24 A2979 RMK AO2 T03360235
K3T5 240035Z AUTO 15007KT 10SM CLR 34/24 A2978 RMK AO2 T03420236
K3T5 240015Z AUTO 16008G14KT 10SM CLR 35/24 A2978 RMK AO2 T03490236
K3T5 232355Z AUTO 16007KT 10SM CLR 36/24 A2977 RMK AO2 T03550236 10385 20354
K3T5 232335Z AUTO 15009KT 10SM CLR 36/24 A2976 RMK AO2 T03610235
K3T5 232315Z AUTO 14009KT 10SM CLR 37/24 A2977 RMK AO2 T03650235
K3T5 232255Z AUTO 15008KT 120V180 10SM CLR 37/23 A2976 RMK AO2 T03730227
K3T5 232235Z AUTO 16007KT 10SM CLR 37/23 A2976 RMK AO2 T03730225
K3T5 232215Z AUTO 14007KT 10SM SCT055 37/23 A2976 RMK AO2 T03700229
K3T5 232155Z AUTO 13007KT 10SM SCT055 37/23 A2977 RMK AO2 T03720234
K3T5 232135Z AUTO 14007KT 10SM SCT060 38/24 A2976 RMK AO2 T03760238
K3T5 232115Z AUTO 15010G16KT 10SM SCT060 38/24 A2976 RMK AO2 T03790240
K3T5 232055Z AUTO 14007KT 10SM CLR 38/23 A2977 RMK AO2 T03810230
K3T5 232035Z AUTO 14007KT 10SM CLR 38/23 A2977 RMK AO2 T03800231
K3T5 232015Z AUTO 15008KT 10SM CLR 38/24 A2977 RMK AO2 T03760237
K3T5 231955Z AUTO 17009G15KT 10SM CLR 38/24 A2978 RMK AO2 T03760237
K3T5 231935Z AUTO 17009KT 10SM CLR 38/24 A2979 RMK AO2 T03800235
K3T5 231915Z AUTO 16006KT 10SM CLR 38/24 A2979 RMK AO2 T03760239
K3T5 231855Z AUTO 19008KT 10SM CLR 37/24 A2979 RMK AO2 T03730236
K3T5 231835Z AUTO 16005KT 10SM CLR 36/24 A2980 RMK AO2 T03620239
K3T5 231815Z AUTO 17008KT 10SM CLR 36/24 A2980 RMK AO2 T03580236
K3T5 231755Z AUTO 17007KT 10SM CLR 35/24 A2981 RMK AO2 T03530238 10354 20271
K3T5 231735Z AUTO 14007KT 10SM CLR 35/25 A2980 RMK AO2 T03470245
K3T5 231715Z AUTO 17008KT 10SM CLR 35/24 A2980 RMK AO2 T03450244
K3T5 231655Z AUTO 17008KT 10SM CLR 34/24 A2981 RMK AO2 T03360244
K3T5 231635Z AUTO 18007KT 150V220 10SM SCT032 34/25 A2980 RMK AO2 T03350247
K3T5 231615Z AUTO 15008KT 120V180 10SM SCT028 34/25 A2980 RMK AO2 T03390248
K3T5 231555Z AUTO 20008G14KT 10SM SCT028 33/25 A2980 RMK AO2 T03320251
K3T5 231535Z AUTO 19010KT 10SM SCT025 32/25 A2980 RMK AO2 T03210250
K3T5 231515Z AUTO 17007KT 10SM SCT020 32/25 A2980 RMK AO2 T03160253
K3T5 231455Z AUTO 18009KT 10SM BKN020 31/25 A2980 RMK AO2 T03060254
K3T5 231435Z AUTO 18007KT 10SM OVC018 30/26 A2980 RMK AO2 T03020256
K3T5 231415Z AUTO 18008KT 10SM BKN015 OVC020 30/26 A2980 RMK AO2 T02990259
K3T5 231355Z AUTO 20010KT 10SM OVC013 29/26 A2979 RMK AO2 T02940260
K3T5 231335Z AUTO 18010G14KT 10SM OVC013 29/26 A2978 RMK AO2 T02880260
K3T5 231315Z AUTO 18009KT 10SM OVC011 28/26 A2978 RMK AO2 T02840260
K3T5 231255Z AUTO 18009KT 10SM OVC011 28/26 A2977 RMK AO2 T02810261
K3T5 231235Z AUTO 18007KT 10SM BKN011 OVC019 28/26 A2977 RMK AO2 T02760261
K3T5 231215Z AUTO 17007KT 7SM BKN015 OVC019 27/26 A2975 RMK AO2 T02740260
K3T5 231155Z AUTO 18007KT 10SM OVC016 27/26 A2976 RMK AO2 T02710260 10273 20265
K3T5 231135Z AUTO 17004KT 7SM OVC014 27/26 A2976 RMK AO2 T02670258
K3T5 231115Z AUTO 17003KT 7SM OVC014 27/26 A2975 RMK AO2 T02660257
K3T5 231055Z AUTO 17004KT 7SM OVC014 27/26 A2974 RMK AO2 T02670257
K3T5 231035Z AUTO 17004KT 7SM OVC012 27/26 A2974 RMK AO2 T02670257
K3T5 231015Z AUTO 17004KT 10SM OVC012 27/26 A2974 RMK AO2 T02680257
K3T5 230955Z AUTO 17006KT 10SM OVC010 27/26 A2974 RMK AO2 T02700260
K3T5 230935Z AUTO 17005KT 10SM OVC010 27/26 A2974 RMK AO2 T02700259
K3T5 230915Z AUTO 17006KT 10SM BKN010 27/26 A2973 RMK AO2 T02720259


Page loaded:  20:55 UTC  |   01:55 PM Pacific  |   02:55 PM Mountain  |   03:55 PM Central  |   04:55 PM Eastern

 

ADVISORIES

FORECASTS

FORECASTS

OBSERVATIONS

USER TOOLS

ABOUT US